Latest Weather Observations for Century Mine

IDQ60801

Issued at 3:22 pm EST Wednesday 19 December 2018 (issued every 10 minutes, with the page automatically refreshed every 10 minutes)

About weather observations | Map of weather stations | Latest weather observations for QLD | Other Formats
Station Details ID: 029167 Name: CENTURY MINE Lat: -18.76 Lon: 138.71 Height: 126.8 m
Data from the previous 72 hours. | See also: Recent months at Century Mine
Date/Time
EST
Temp
°C
App
Temp
°C
Dew
Point
°C
Rel
Hum
%
Delta-T
°C
Wind Press
QNH
hPa
Press
MSL
hPa
Rain since
9am
mm
Dir  Spd
km/h
Gust
km/h
Spd
kts
Gust
kts
19/03:00pm 42.6 41.1 10.5 15 19.4 N 9 20 5 11 1004.4 1003.4 0.0
19/02:30pm 43.1 40.2 10.9 15 19.6 N 17 30 9 16 1004.7 1003.7 0.0
19/02:00pm 40.7 38.0 9.0 15 18.6 NNE 13 22 7 12 1005.0 1004.0 0.0
19/01:30pm 41.0 38.0 9.2 15 18.7 NNE 15 24 8 13 1005.6 1004.6 0.0
19/01:00pm 41.1 39.4 11.2 17 18.2 NNW 11 20 6 11 1006.1 1005.1 0.0
19/12:30pm 40.7 37.4 10.9 17 18.0 NNW 19 32 10 17 1006.7 1005.7 0.0
19/12:00pm 39.7 37.4 11.7 19 17.0 NW 15 26 8 14 1007.1 1006.1 0.0
19/11:30am 38.9 36.7 13.3 22 15.8 NNW 17 28 9 15 1007.6 1006.6 0.0
19/11:00am 39.1 36.8 14.2 23 15.6 NNW 19 32 10 17 1007.9 1006.9 0.0
19/10:30am 36.9 35.6 13.6 24 14.4 NNW 13 20 7 11 1008.2 1007.2 0.0
19/10:00am 36.5 34.9 13.9 26 14.0 NNW 15 24 8 13 1008.4 1007.4 0.0
19/09:30am 35.3 33.9 13.5 27 13.4 NNW 13 26 7 14 1008.3 1007.3 0.0
19/09:00am 34.9 33.2 13.7 28 13.0 NW 15 26 8 14 1008.3 1007.3 0.0
19/08:30am 33.6 31.9 13.6 29 12.2 NW 15 20 8 11 1008.3 1007.3 0.0
19/08:00am 32.3 31.6 14.4 33 11.0 NNW 11 17 6 9 1008.1 1007.1 0.0
19/07:30am 30.1 31.9 15.4 41 9.1 CALM 0 7 0 4 1008.2 1007.2 0.0
19/07:00am 29.0 30.8 15.5 44 8.3 CALM 0 6 0 3 1007.7 1006.7 0.0
19/06:30am 26.6 28.2 15.0 49 7.0 CALM 0 0 0 0 1007.3 1006.3 0.0
19/06:00am 26.7 27.5 14.8 48 7.2 SSE 4 6 2 3 1007.1 1006.1 0.0
19/05:30am 26.9 28.4 14.6 46 7.4 CALM 0 0 0 0 1006.6 1005.6 0.0
19/05:00am 27.5 28.8 14.2 44 8.0 CALM 0 0 0 0 1006.4 1005.4 0.0
19/04:30am 28.7 29.5 13.8 40 8.9 NNW 2 6 1 3 1006.2 1005.2 0.0
19/04:00am 30.4 30.4 14.1 37 9.9 NNW 7 9 4 5 1006.2 1005.2 0.0
19/03:30am 31.0 30.3 13.3 34 10.6 NNW 9 11 5 6 1006.2 1005.2 0.0
19/03:00am 31.4 30.2 14.1 35 10.6 NNW 13 15 7 8 1006.1 1005.1 0.0
19/02:30am 31.6 31.4 16.7 40 9.4 NNW 13 19 7 10 1006.1 1005.1 0.0
19/02:00am 31.2 32.8 21.4 56 6.6 NNW 15 20 8 11 1006.1 1005.1 0.0
19/01:30am 31.1 33.0 21.3 56 6.6 NNW 13 17 7 9 1006.2 1005.2 0.0
19/01:00am 31.4 32.8 20.4 52 7.4 NNW 13 20 7 11 1006.4 1005.4 0.0
19/12:30am 31.7 31.7 19.0 47 8.3 NNW 17 24 9 13 1006.7 1005.7 0.0
19/12:00am 32.1 31.2 18.3 44 9.0 NNW 20 26 11 14 1007.0 1006.0 0.0
 
Date/Time
EST
Temp
°C
App
Temp
°C
Dew
Point
°C
Rel
Hum
%
Delta-T
°C
Wind Press
QNH
hPa
Press
MSL
hPa
Rain since
9am
mm
Dir  Spd
km/h
Gust
km/h
Spd
kts
Gust
kts
18/11:30pm 32.2 31.7 19.1 45 8.6 NNW 20 32 11 17 1007.1 1006.1 0.0
18/11:00pm 32.4 34.1 21.6 53 7.4 N 15 20 8 11 1007.0 1006.0 0.0
18/10:30pm 32.5 33.7 21.4 52 7.5 N 17 26 9 14 1006.9 1005.9 0.0
18/10:00pm 32.7 33.2 20.9 49 8.0 N 19 26 10 14 1006.7 1005.7 0.0
18/09:30pm 33.2 32.4 20.0 45 8.8 N 24 37 13 20 1006.3 1005.3 0.0
18/09:00pm 33.7 33.0 18.2 39 10.1 N 19 28 10 15 1005.9 1004.9 0.0
18/08:30pm 33.7 33.1 20.5 46 8.9 N 24 35 13 19 1005.4 1004.4 0.0
18/08:13pm 34.3 32.6 19.9 42 9.6 N 28 46 15 25 1005.3 1004.3 0.0
18/08:00pm 35.0 31.8 18.6 38 10.8 N 33 44 18 24 1004.9 1003.9 0.0
18/07:34pm 36.2 33.4 17.4 33 12.2 N 28 46 15 25 1004.4 1003.4 0.0
18/07:30pm 36.2 32.7 17.4 33 12.2 N 32 46 17 25 1004.3 1003.3 0.0
18/07:22pm 36.7 34.1 17.8 32 12.4 NNE 28 46 15 25 1003.9 1002.8 0.0
18/07:00pm 38.2 35.6 15.9 26 14.3 NNE 24 37 13 20 1003.2 1002.2 0.0
18/06:30pm 41.4 39.4 8.5 14 19.2 ENE 9 20 5 11 1002.4 1001.4 0.0
18/06:00pm 41.7 39.3 8.8 14 19.4 ENE 11 17 6 9 1002.2 1001.2 0.0
18/05:30pm 41.7 40.6 9.8 15 19.0 NE 6 15 3 8 1002.1 1001.1 0.0
18/05:00pm 42.3 41.8 9.2 14 19.7 W 2 7 1 4 1001.8 1000.8 0.0
18/04:30pm 42.0 40.7 10.0 15 19.1 N 7 11 4 6 1002.2 1001.2 0.0
18/04:00pm 41.2 39.0 9.4 15 18.9 NNW 11 22 6 12 1002.5 1001.5 0.0
18/03:30pm 41.4 39.6 9.6 15 18.9 S 9 17 5 9 1002.8 1001.8 0.0
18/03:00pm 40.8 39.1 10.0 16 18.4 NW 9 20 5 11 1003.2 1002.2 0.0
18/02:30pm 41.6 39.4 10.7 16 18.6 WNW 13 26 7 14 1003.8 1002.7 0.0
18/02:00pm 41.2 39.0 9.4 15 18.9 N 11 20 6 11 1004.2 1003.1 0.0
18/01:30pm 40.6 39.5 10.8 17 17.9 ENE 7 15 4 8 1004.7 1003.7 0.0
18/01:00pm 39.3 38.8 13.7 22 16.0 NW 9 15 5 8 1005.1 1004.1 0.0
18/12:30pm 40.5 41.0 16.6 24 15.5 NW 9 19 5 10 1005.5 1004.5 0.0
18/12:00pm 38.0 38.4 16.3 27 14.0 NNW 9 20 5 11 1006.0 1005.0 0.0
18/11:30am 38.1 38.6 17.5 30 13.5 NNW 11 22 6 12 1006.5 1005.5 0.0
18/11:00am 37.3 38.8 18.8 33 12.3 NNW 9 20 5 11 1007.0 1006.0 0.0
18/10:30am 36.4 37.6 19.8 37 11.1 N 13 20 7 11 1007.3 1006.3 0.0
18/10:00am 35.8 38.0 20.5 41 10.4 NW 9 20 5 11 1007.6 1006.6 0.0
18/09:30am 35.0 37.8 20.5 42 9.8 NNW 6 19 3 10 1007.8 1006.8 0.0
18/09:00am 33.1 34.9 20.3 47 8.6 WNW 11 17 6 9 1008.0 1007.0 0.0
18/08:30am 32.3 34.5 21.2 52 7.5 NNW 11 17 6 9 1008.0 1007.0 0.0
18/08:00am 31.6 33.7 21.7 55 6.7 NNW 13 17 7 9 1007.9 1006.9 0.0
18/07:30am 30.8 33.1 22.1 59 5.9 N 13 19 7 10 1007.7 1006.7 0.0
18/07:00am 30.1 34.0 22.5 63 5.2 NNE 6 9 3 5 1007.4 1006.4 0.0
18/06:30am 29.2 33.3 22.9 69 4.3 N 6 7 3 4 1007.0 1006.0 0.0
18/06:00am 28.5 32.4 22.5 70 4.1 ENE 6 7 3 4 1006.5 1005.5 0.0
18/05:30am 28.7 32.1 22.7 70 4.1 NNW 9 11 5 6 1005.9 1004.9 0.0
18/05:00am 29.0 32.0 22.7 69 4.3 NNW 11 13 6 7 1005.5 1004.5 0.0
18/04:30am 29.1 32.2 22.8 69 4.3 NNW 11 13 6 7 1005.3 1004.3 0.0
18/04:00am 29.4 33.2 23.4 70 4.2 NNW 9 11 5 6 1005.2 1004.2 0.0
18/03:30am 29.7 33.2 23.6 69 4.2 NNW 11 15 6 8 1005.0 1004.0 0.0
18/03:00am 29.8 33.3 23.5 69 4.4 NW 11 15 6 8 1005.2 1004.2 0.0
18/02:30am 30.3 33.6 23.2 65 4.9 NNW 11 17 6 9 1005.2 1004.2 0.0
18/02:00am 30.6 33.8 23.0 64 5.2 N 11 15 6 8 1005.3 1004.3 0.0
18/01:30am 30.9 34.4 22.8 62 5.6 NNW 9 13 5 7 1005.5 1004.5 0.0
18/01:00am 31.5 34.4 23.1 61 5.8 N 13 19 7 10 1005.6 1004.6 0.0
18/12:30am 31.7 34.3 22.7 59 6.2 N 13 20 7 11 1005.8 1004.8 0.0
18/12:00am 32.0 34.6 22.7 58 6.4 N 13 17 7 9 1005.9 1004.9 0.0
 
Date/Time
EST
Temp
°C
App
Temp
°C
Dew
Point
°C
Rel
Hum
%
Delta-T
°C
Wind Press
QNH
hPa
Press
MSL
hPa
Rain since
9am
mm
Dir  Spd
km/h
Gust
km/h
Spd
kts
Gust
kts
17/11:30pm 32.2 34.9 21.4 53 7.3 NNE 9 17 5 9 1006.0 1005.0 0.0
17/11:00pm 32.9 34.1 19.0 43 9.2 N 11 15 6 8 1006.0 1005.0 0.0
17/10:30pm 33.4 33.4 18.0 40 10.0 N 15 20 8 11 1005.7 1004.7 0.0
17/10:00pm 33.9 32.8 16.3 35 11.2 N 17 26 9 14 1005.3 1004.3 0.0
17/09:30pm 34.4 32.5 15.8 33 11.7 N 20 32 11 17 1005.1 1004.1 0.0
17/09:00pm 34.9 33.6 16.7 34 11.7 N 19 28 10 15 1004.5 1003.5 0.0
17/08:30pm 35.4 34.0 17.1 33 11.8 NNE 20 33 11 18 1004.0 1002.9 0.0
17/08:00pm 36.8 35.0 9.4 19 16.0 ENE 9 15 5 8 1003.2 1002.2 0.0
17/07:30pm 38.0 36.6 8.7 17 16.9 NNE 6 9 3 5 1002.9 1001.9 0.0
17/07:00pm 39.2 37.0 7.8 15 18.1 N 9 13 5 7 1002.6 1001.6 0.0
17/06:30pm 39.8 37.8 7.3 14 18.5 NNE 7 13 4 7 1002.5 1001.5 0.0
17/06:00pm 40.8 39.0 7.0 13 19.3 ESE 6 13 3 7 1002.2 1001.2 0.0
17/05:30pm 40.6 38.0 7.9 14 18.9 N 11 17 6 9 1002.2 1001.2 0.0
17/05:00pm 40.6 38.7 8.9 15 18.6 NNW 9 20 5 11 1002.1 1001.1 0.0
17/04:30pm 40.3 37.9 8.7 15 18.4 WNW 11 20 6 11 1002.2 1001.2 0.0
17/04:00pm 40.2 38.2 8.6 15 18.5 NNW 9 13 5 7 1002.4 1001.4 0.0
17/03:30pm 39.6 37.3 9.1 16 17.8 NNE 11 22 6 12 1002.7 1001.7 0.0
17/03:00pm 40.4 38.4 8.8 15 18.5 SSW 9 15 5 8 1003.1 1002.1 0.0
17/02:30pm 39.8 38.1 8.3 15 18.2 NE 7 13 4 7 1003.7 1002.6 0.0
17/02:00pm 39.0 37.0 8.6 16 17.7 SSE 9 19 5 10 1004.2 1003.1 0.0
17/01:30pm 40.3 38.2 9.6 16 18.1 S 11 20 6 11 1004.5 1003.5 0.0
17/01:00pm 39.4 36.9 8.0 15 18.1 SSW 11 19 6 10 1004.8 1003.8 0.0
17/12:30pm 38.5 37.2 10.0 18 16.8 SSW 7 11 4 6 1005.2 1004.2 0.0
17/12:00pm 38.5 38.3 13.0 22 15.7 SSW 6 11 3 6 1005.7 1004.7 0.0
17/11:30am 37.2 37.2 15.1 27 13.9 E 9 17 5 9 1006.2 1005.2 0.0
17/11:00am 37.0 36.9 14.9 27 13.9 S 9 15 5 8 1006.6 1005.6 0.0
17/10:30am 35.7 36.7 16.9 32 12.1 W 7 11 4 6 1006.9 1005.9 0.0
17/10:00am 35.4 36.7 17.6 35 11.6 ENE 7 15 4 8 1007.3 1006.3 0.0
17/09:30am 34.7 36.9 19.1 39 10.3 ESE 6 13 3 7 1007.4 1006.4 0.0
17/09:00am 33.1 35.1 18.8 42 9.4 NW 6 15 3 8 1007.6 1006.6 0.0
17/08:30am 32.0 34.6 19.3 47 8.4 WNW 4 9 2 5 1007.7 1006.7 0.0
17/08:00am 30.8 33.3 19.8 52 7.3 ENE 6 7 3 4 1007.7 1006.7 0.0
17/07:30am 29.7 34.1 21.4 61 5.6 CALM 0 0 0 0 1007.7 1006.7 0.0
17/07:00am 28.0 32.5 21.5 67 4.4 CALM 0 7 0 4 1007.3 1006.3 0.0
17/06:30am 26.2 30.1 20.3 70 3.9 CALM 0 0 0 0 1006.8 1005.8 0.0
17/06:00am 25.8 29.4 19.7 69 4.0 CALM 0 0 0 0 1006.4 1005.4 0.0
17/05:30am 26.7 30.6 20.3 68 4.2 CALM 0 0 0 0 1005.9 1004.9 0.0
17/05:00am 27.5 30.5 20.8 67 4.5 NNW 6 7 3 4 1005.5 1004.5 0.0
17/04:30am 27.6 31.8 20.9 67 4.5 CALM 0 0 0 0 1005.4 1004.4 0.0
17/04:00am 27.6 30.5 19.9 63 5.1 NW 4 6 2 3 1005.2 1004.2 0.0
17/03:30am 28.0 30.7 20.3 63 5.1 WNW 6 7 3 4 1005.2 1004.2 0.0
17/03:00am 28.4 32.6 20.9 64 5.0 CALM 0 0 0 0 1005.2 1004.2 0.0
17/02:30am 28.8 31.8 20.8 62 5.3 NW 6 7 3 4 1005.2 1004.2 0.0
17/02:00am 29.4 32.2 20.5 58 5.9 NNW 6 7 3 4 1005.3 1004.3 0.0
17/01:30am 29.7 32.3 20.5 57 6.1 NW 7 11 4 6 1005.8 1004.8 0.0
17/01:00am 30.1 32.6 19.8 54 6.8 NW 6 9 3 5 1006.1 1005.1 0.0
17/12:30am 30.7 32.4 19.4 51 7.4 NNW 9 13 5 7 1006.1 1005.1 0.0
17/12:00am 31.0 32.2 19.0 48 7.9 N 11 17 6 9 1006.2 1005.2 0.0
 
Date/Time
EST
Temp
°C
App
Temp
°C
Dew
Point
°C
Rel
Hum
%
Delta-T
°C
Wind Press
QNH
hPa
Press
MSL
hPa
Rain since
9am
mm
Dir  Spd
km/h
Gust
km/h
Spd
kts
Gust
kts
16/11:30pm 31.2 32.1 18.5 46 8.2 N 11 15 6 8 1006.5 1005.5 0.0
16/11:00pm 31.7 32.7 18.7 46 8.5 N 11 17 6 9 1006.4 1005.4 0.0
16/10:30pm 32.0 32.7 18.9 45 8.6 N 13 17 7 9 1006.4 1005.4 0.0
16/10:00pm 32.4 32.9 19.3 46 8.7 N 15 20 8 11 1006.3 1005.3 0.0
16/09:30pm 32.8 32.2 18.9 43 9.1 N 20 28 11 15 1005.9 1004.9 0.0
16/09:00pm 33.5 32.5 18.8 41 9.7 N 22 33 12 18 1005.2 1004.2 0.0
16/08:30pm 35.3 33.7 16.1 32 12.2 N 19 32 10 17 1004.4 1003.4 0.0
16/08:00pm 35.8 33.8 15.5 29 12.9 NNE 20 35 11 19 1003.9 1002.8 0.0
16/07:51pm 36.4 35.2 15.0 28 13.4 NNE 15 35 8 19 1003.6 1002.5 0.0
16/07:30pm 37.8 36.6 10.2 19 16.3 NE 7 11 4 6 1003.1 1002.1 0.0
16/07:00pm 38.7 36.1 9.3 17 17.2 NE 13 20 7 11 1002.8 1001.8 0.0
16/06:30pm 39.6 38.4 8.1 15 18.2 SSE 4 11 2 6 1002.4 1001.4 0.0
16/06:00pm 39.6 37.8 8.1 15 18.2 ENE 7 13 4 7 1002.1 1001.1 0.0
16/05:30pm 39.7 37.2 8.2 15 18.2 E 11 15 6 8 1001.9 1000.9 0.0
16/05:00pm 39.7 37.2 8.2 15 18.3 E 11 20 6 11 1001.4 1000.4 0.0
16/04:30pm 39.9 37.4 8.4 15 18.3 SE 11 17 6 9 1001.9 1000.9 0.0
16/04:00pm 40.4 39.5 11.5 18 17.6 SSW 7 17 4 9 1002.2 1001.2 0.0
16/03:30pm 40.5 38.8 9.8 16 18.2 WSW 9 17 5 9 1002.6 1001.6 0.0

Other Formats:

Comma delimited format used in spreadsheet applications
http://www.bom.gov.au/fwo/IDQ60801/IDQ60801.94261.axf

JavaScript Object Notation format (JSON) in row-major order
http://www.bom.gov.au/fwo/IDQ60801/IDQ60801.94261.json